Time;durP1;ratioP1;P1;durP2;ratioP2;P2;SDS_P1;SDS_P2;PMS_P1;PMS_P2;Temp;Humidity;BMP_temperature;BMP_pressure;BME280_temperature;BME280_humidity;BME280_pressure;Samples;Min_cycle;Max_cycle;Signal;HPM_P1;HPM_P2
2021/12/23 00:01:40;;;;;;;25.00;15.43;;;;;;;6.68;52.50;99069.72;5095119;28;20032;-49
2021/12/23 00:04:06;;;;;;;27.42;15.82;;;;;;;6.86;53.00;99066.94;5095035;28;20568;-49
2021/12/23 00:06:32;;;;;;;23.23;15.00;;;;;;;6.94;51.68;99053.84;5094954;28;20479;-50
2021/12/23 00:09:00;;;;;;;22.98;14.82;;;;;;;6.90;51.18;99049.13;5094894;28;20103;-49
2021/12/23 00:11:26;;;;;;;22.90;15.60;;;;;;;6.96;51.17;99061.50;5094822;28;20024;-49
2021/12/23 00:14:25;;;;;;;22.45;13.95;;;;;;;6.93;51.06;99052.22;5094846;28;20017;-49
2021/12/23 00:16:54;;;;;;;26.30;17.23;;;;;;;6.78;50.50;99053.88;5092466;28;20486;-49
2021/12/23 00:24:40;;;;;;;23.52;14.32;;;;;;;6.43;51.80;99068.13;5094966;28;20058;-49
2021/12/23 00:27:07;;;;;;;18.60;13.05;;;;;;;6.42;51.95;99059.50;5094615;28;20028;-49
2021/12/23 00:29:33;;;;;;;26.70;16.02;;;;;;;6.24;52.23;99064.03;5093179;28;20382;-49
2021/12/23 00:31:59;;;;;;;25.73;16.52;;;;;;;5.96;51.62;99054.75;5094156;28;20523;-49
2021/12/23 00:34:26;;;;;;;22.35;15.30;;;;;;;5.62;52.19;99061.84;5094472;28;20028;-49
2021/12/23 00:36:54;;;;;;;23.92;15.52;;;;;;;5.28;53.30;99058.31;5094309;28;20020;-48
2021/12/23 00:39:20;;;;;;;40.80;24.05;;;;;;;5.09;53.66;99058.53;5094286;28;20055;-49
2021/12/23 00:41:46;;;;;;;84.90;66.38;;;;;;;4.96;54.49;99056.38;5094281;28;20044;-49
2021/12/23 00:44:13;;;;;;;30.88;22.05;;;;;;;4.99;54.54;99053.47;5094289;28;20059;-49
2021/12/23 00:46:39;;;;;;;34.05;21.65;;;;;;;5.22;54.20;99061.53;5094131;28;20401;-49
2021/12/23 00:49:06;;;;;;;23.02;15.18;;;;;;;5.35;54.67;99066.28;5094185;28;20020;-48
2021/12/23 00:51:33;;;;;;;26.58;15.40;;;;;;;5.36;54.21;99063.53;5094047;28;20019;-49
2021/12/23 00:54:05;;;;;;;33.33;16.73;;;;;;;5.47;54.40;99064.22;5094062;28;20024;-49
2021/12/23 00:56:36;;;;;;;22.67;15.48;;;;;;;5.52;54.75;99064.56;5093927;28;20474;-48
2021/12/23 00:59:06;;;;;;;27.15;15.75;;;;;;;5.56;53.99;99053.66;5092914;28;20375;-48
2021/12/23 01:01:32;;;;;;;24.95;15.32;;;;;;;5.77;54.12;99050.59;5093937;28;20444;-49
2021/12/23 01:03:57;;;;;;;25.85;15.02;;;;;;;5.89;53.24;99045.09;5093827;28;20111;-49
2021/12/23 01:06:23;;;;;;;22.35;15.35;;;;;;;5.67;54.18;99043.94;5093768;28;20099;-49
2021/12/23 01:08:49;;;;;;;23.30;14.20;;;;;;;5.48;54.07;99037.22;5093772;28;20046;-49
2021/12/23 01:11:15;;;;;;;23.90;14.82;;;;;;;5.26;54.40;99029.03;5093770;28;20020;-48
2021/12/23 01:13:47;;;;;;;22.25;15.10;;;;;;;5.17;54.85;99020.38;5092300;28;20023;-49
2021/12/23 01:16:25;;;;;;;31.63;16.23;;;;;;;4.94;55.36;99024.50;5093631;28;20070;-49
2021/12/23 01:18:54;;;;;;;24.52;16.63;;;;;;;4.68;55.23;99019.34;5093647;28;20035;-48
2021/12/23 01:21:20;;;;;;;23.50;15.15;;;;;;;4.54;56.30;99018.91;5093525;28;20097;-49
2021/12/23 01:23:52;;;;;;;26.17;15.70;;;;;;;4.55;55.98;99023.16;5093505;28;20028;-48
2021/12/23 01:26:21;;;;;;;23.45;15.30;;;;;;;4.62;56.23;99019.94;5093494;28;20034;-48
2021/12/23 01:28:58;;;;;;;24.10;13.38;;;;;;;4.79;56.66;99014.69;5093411;28;20405;-49
2021/12/23 01:31:26;;;;;;;21.70;13.73;;;;;;;5.04;55.87;99011.38;5091150;28;20122;-49
2021/12/23 01:33:53;;;;;;;22.10;14.07;;;;;;;5.04;55.86;99006.19;5091935;28;20036;-49
2021/12/23 01:36:18;;;;;;;20.50;12.77;;;;;;;5.21;55.46;99007.84;5091854;28;20570;-48
2021/12/23 01:38:44;;;;;;;18.98;12.60;;;;;;;5.42;55.42;99012.63;5093795;28;20024;-49
2021/12/23 01:41:10;;;;;;;21.05;12.93;;;;;;;5.58;55.23;99001.44;5093153;28;20119;-49
2021/12/23 01:43:36;;;;;;;19.95;12.80;;;;;;;5.69;54.78;99000.31;5091821;28;20449;-48
2021/12/23 01:46:03;;;;;;;23.13;13.52;;;;;;;5.82;54.58;98994.66;5093058;28;20020;-49
2021/12/23 01:48:29;;;;;;;19.58;14.38;;;;;;;5.78;54.45;98994.16;5092988;28;20058;-49
2021/12/23 01:50:54;;;;;;;22.92;13.77;;;;;;;5.59;54.34;98984.84;5091660;28;20032;-48
2021/12/23 01:53:20;;;;;;;21.25;13.32;;;;;;;5.35;54.88;98980.41;5093011;28;20020;-48
2021/12/23 01:55:46;;;;;;;27.75;16.33;;;;;;;5.17;55.81;98990.94;5091511;28;20020;-49
2021/12/23 01:58:13;;;;;;;20.48;13.35;;;;;;;5.05;56.20;98980.03;5092762;28;20546;-49
2021/12/23 02:00:43;;;;;;;22.17;12.55;;;;;;;5.47;56.51;98973.09;5092737;28;20107;-49
2021/12/23 02:03:10;;;;;;;18.90;11.20;;;;;;;5.73;55.27;98968.56;5092930;28;20043;-49
2021/12/23 02:05:36;;;;;;;25.50;17.60;;;;;;;5.82;54.84;98985.03;5092733;28;20024;-49
2021/12/23 02:08:02;;;;;;;25.60;13.40;;;;;;;5.95;55.48;98971.56;5092718;28;20020;-49
2021/12/23 02:10:29;;;;;;;23.08;12.23;;;;;;;6.34;54.71;98969.06;5092675;28;20103;-49
2021/12/23 02:12:55;;;;;;;20.60;11.07;;;;;;;6.52;54.11;98963.66;5092855;28;20028;-49
2021/12/23 02:15:21;;;;;;;16.85;12.35;;;;;;;6.67;53.59;98973.41;5092554;28;20023;-49
2021/12/23 02:17:48;;;;;;;27.40;12.90;;;;;;;6.90;53.73;98960.41;5092462;28;20027;-50
2021/12/23 02:20:18;;;;;;;35.08;20.40;;;;;;;7.01;52.61;98957.44;5092319;28;20027;-49
2021/12/23 02:22:44;;;;;;;26.52;14.63;;;;;;;6.90;52.82;98963.88;5092410;28;20032;-49
2021/12/23 02:25:11;;;;;;;25.27;14.80;;;;;;;6.71;52.98;98964.25;5092351;28;20016;-49
2021/12/23 02:27:37;;;;;;;21.25;11.07;;;;;;;6.40;53.48;98963.19;5092344;28;20024;-48
2021/12/23 02:30:07;;;;;;;19.02;11.82;;;;;;;6.31;54.16;98974.59;5092229;28;20020;-49
2021/12/23 02:32:35;;;;;;;18.73;12.48;;;;;;;6.22;53.76;98974.78;5096020;28;20486;-49
2021/12/23 02:35:01;;;;;;;19.77;11.73;;;;;;;6.17;54.72;98964.84;5092212;28;20059;-49
2021/12/23 02:37:27;;;;;;;20.05;12.32;;;;;;;6.17;54.88;98973.47;5090774;28;20035;-49
2021/12/23 02:39:53;;;;;;;18.25;10.00;;;;;;;6.09;54.59;98964.88;5092145;28;20016;-49
2021/12/23 02:42:18;;;;;;;17.48;11.13;;;;;;;6.06;54.58;98960.00;5091647;28;20059;-49
2021/12/23 02:44:44;;;;;;;18.65;11.20;;;;;;;6.11;55.19;98960.31;5091583;28;20055;-49
2021/12/23 02:47:10;;;;;;;16.65;9.82;;;;;;;6.16;55.39;98952.81;5091950;28;20413;-49
2021/12/23 02:49:36;;;;;;;14.13;9.93;;;;;;;6.18;55.23;98963.91;5092036;28;20012;-49
2021/12/23 02:52:01;;;;;;;17.75;10.48;;;;;;;6.16;55.39;98956.22;5091965;28;20080;-49
2021/12/23 02:54:28;;;;;;;19.33;10.98;;;;;;;6.16;55.65;98964.06;5091959;28;20091;-49
2021/12/23 02:56:54;;;;;;;18.48;11.65;;;;;;;6.17;55.55;98959.66;5091820;28;20027;-49
2021/12/23 02:59:19;;;;;;;14.43;8.65;;;;;;;6.38;56.01;98965.16;5091861;28;20020;-49
2021/12/23 03:01:45;;;;;;;19.38;11.52;;;;;;;6.55;55.78;98965.13;5091863;28;20027;-49
2021/12/23 03:04:11;;;;;;;16.98;10.48;;;;;;;6.83;55.41;98968.13;5091878;28;20113;-49
2021/12/23 03:06:37;;;;;;;22.20;11.02;;;;;;;6.98;54.89;98979.47;5090533;28;20090;-50
2021/12/23 03:09:04;;;;;;;18.63;10.70;;;;;;;6.98;54.99;98984.69;5091807;28;20051;-49
2021/12/23 03:11:31;;;;;;;15.10;9.85;;;;;;;7.12;55.37;98988.38;5091795;28;20057;-49
2021/12/23 03:13:57;;;;;;;15.85;9.48;;;;;;;7.22;54.34;98993.38;5090405;28;20095;-49
2021/12/23 03:16:27;;;;;;;14.80;9.60;;;;;;;7.32;54.85;99008.84;5091562;28;20115;-49
2021/12/23 03:18:53;;;;;;;18.13;11.00;;;;;;;7.35;54.07;99004.09;5092013;28;20028;-49
2021/12/23 03:21:19;;;;;;;16.33;10.02;;;;;;;7.36;53.77;99017.94;5091709;28;20047;-50
2021/12/23 03:23:46;;;;;;;19.42;11.52;;;;;;;7.15;53.70;99015.94;5091726;28;20016;-49
2021/12/23 03:26:11;;;;;;;16.23;11.13;;;;;;;6.99;53.48;99004.56;5090281;28;20074;-50
2021/12/23 03:28:37;;;;;;;18.58;12.57;;;;;;;6.95;53.86;99013.72;5091689;28;20024;-48
2021/12/23 03:31:04;;;;;;;23.33;12.38;;;;;;;6.82;53.06;99008.22;5091610;28;20027;-49
2021/12/23 03:33:30;;;;;;;18.23;12.00;;;;;;;6.62;53.33;99001.75;5091418;28;20523;-49
2021/12/23 03:35:56;;;;;;;16.08;11.88;;;;;;;6.38;53.70;99006.88;5091536;28;20024;-49
2021/12/23 03:38:23;;;;;;;19.00;12.65;;;;;;;6.15;53.81;99005.91;5090232;28;20032;-48
2021/12/23 03:40:49;;;;;;;18.65;11.90;;;;;;;6.04;54.38;99009.66;5090216;28;20085;-49
2021/12/23 03:43:17;;;;;;;20.50;12.70;;;;;;;6.15;54.67;99006.72;5091744;28;20012;-49
2021/12/23 03:45:44;;;;;;;19.55;12.80;;;;;;;6.18;55.30;99010.81;5091459;28;20379;-48
2021/12/23 03:48:11;;;;;;;18.38;12.48;;;;;;;6.15;54.47;99013.72;5091465;28;20020;-49
2021/12/23 03:50:37;;;;;;;19.08;12.85;;;;;;;5.89;54.49;99014.66;5091392;28;20035;-49
2021/12/23 03:53:03;;;;;;;16.92;11.88;;;;;;;5.67;55.41;99005.69;5091387;28;20012;-49
2021/12/23 03:55:28;;;;;;;21.85;12.32;;;;;;;5.70;55.58;99014.97;5094079;28;20397;-49
2021/12/23 03:57:54;;;;;;;19.92;11.10;;;;;;;5.64;56.36;99006.00;5095070;28;20016;-49
2021/12/23 04:00:22;;;;;;;19.63;11.57;;;;;;;5.61;55.78;99008.94;5093736;28;20028;-49
2021/12/23 04:02:49;;;;;;;20.30;11.90;;;;;;;5.52;56.28;99002.09;5095069;28;20020;-48
2021/12/23 04:05:16;;;;;;;21.55;12.13;;;;;;;5.60;56.44;98999.50;5095019;28;20550;-49
2021/12/23 04:07:43;;;;;;;16.55;10.52;;;;;;;5.57;56.80;98995.44;5094962;28;20024;-49
2021/12/23 04:10:12;;;;;;;15.95;10.80;;;;;;;5.52;58.04;98994.28;5094889;28;20107;-48
2021/12/23 04:12:37;;;;;;;17.00;9.70;;;;;;;5.49;59.34;99003.22;5094908;28;20401;-48
2021/12/23 04:15:05;;;;;;;17.05;10.48;;;;;;;5.52;59.25;98989.88;5094762;28;20024;-49
2021/12/23 04:17:30;;;;;;;14.95;8.82;;;;;;;5.61;59.37;98990.69;5094708;28;20497;-50
2021/12/23 04:20:09;;;;;;;12.77;8.77;;;;;;;5.56;59.07;98983.38;5093367;28;20043;-49
2021/12/23 04:22:35;;;;;;;14.95;10.27;;;;;;;5.66;60.09;98975.44;5093418;28;20511;-49
2021/12/23 04:25:02;;;;;;;14.23;9.98;;;;;;;5.74;59.80;98969.41;5094600;28;20494;-49
2021/12/23 04:27:28;;;;;;;20.33;10.57;;;;;;;5.96;60.25;98966.19;5094899;28;20040;-49
2021/12/23 04:29:53;;;;;;;15.63;9.65;;;;;;;6.39;58.63;98960.75;5094524;28;20094;-49
2021/12/23 04:32:19;;;;;;;12.57;8.77;;;;;;;6.73;58.49;98959.69;5094182;28;20043;-49
2021/12/23 04:34:45;;;;;;;14.02;8.80;;;;;;;6.94;57.06;98951.25;5093163;28;20131;-49
2021/12/23 04:37:10;;;;;;;14.32;7.60;;;;;;;6.89;56.93;98953.59;5092949;28;20496;-49
2021/12/23 04:39:36;;;;;;;16.33;9.35;;;;;;;6.84;57.76;98942.84;5094348;28;20054;-49
2021/12/23 04:42:02;;;;;;;19.20;8.80;;;;;;;7.24;58.11;98957.47;5094332;28;20020;-49
2021/12/23 04:44:28;;;;;;;16.33;8.23;;;;;;;7.79;56.92;98955.66;5094251;28;20036;-50
2021/12/23 04:46:54;;;;;;;16.42;7.93;;;;;;;8.09;55.06;98958.31;5094260;28;20479;-49
2021/12/23 04:49:22;;;;;;;11.57;7.65;;;;;;;7.86;54.30;98959.16;5092863;28;20099;-49
2021/12/23 04:51:48;;;;;;;20.92;10.70;;;;;;;7.52;54.90;98952.56;5094075;28;20099;-49
2021/12/23 04:54:13;;;;;;;15.32;7.32;;;;;;;7.64;57.05;98950.34;5094053;28;20092;-49
2021/12/23 04:56:39;;;;;;;18.52;9.85;;;;;;;7.90;55.04;98962.25;5093967;28;20405;-49
2021/12/23 04:59:05;;;;;;;20.58;13.98;;;;;;;8.12;54.82;98955.38;5094019;28;20023;-49
2021/12/23 05:01:32;;;;;;;16.55;10.18;;;;;;;8.27;54.31;98955.38;5093977;28;20469;-50
2021/12/23 05:03:59;;;;;;;17.92;10.63;;;;;;;8.37;54.10;98948.91;5092630;28;20119;-49
2021/12/23 05:06:25;;;;;;;19.10;11.35;;;;;;;8.20;53.32;98944.81;5091570;28;20039;-49
2021/12/23 05:08:51;;;;;;;17.85;9.80;;;;;;;7.82;53.61;98957.91;5093787;28;20421;-50
2021/12/23 05:11:17;;;;;;;22.60;12.48;;;;;;;7.67;55.08;98955.25;5093804;28;20028;-49
2021/12/23 05:13:45;;;;;;;19.77;12.70;;;;;;;8.04;54.85;98956.25;5093746;28;20534;-49
2021/12/23 05:16:11;;;;;;;20.48;11.95;;;;;;;8.20;54.19;98960.50;5093506;28;20073;-50
2021/12/23 05:18:36;;;;;;;21.50;10.55;;;;;;;8.27;54.00;98966.66;5093585;28;20428;-50
2021/12/23 05:21:05;;;;;;;18.13;11.10;;;;;;;8.24;54.14;98967.00;5093528;28;20093;-49
2021/12/23 05:23:32;;;;;;;20.95;10.55;;;;;;;8.34;54.26;98966.75;5093500;28;20016;-49
2021/12/23 05:25:57;;;;;;;23.85;12.25;;;;;;;8.61;53.74;98973.19;5093437;28;20024;-48
2021/12/23 05:28:23;;;;;;;21.08;11.13;;;;;;;8.57;52.72;98966.69;5092071;28;20058;-50
2021/12/23 05:30:49;;;;;;;15.25;8.65;;;;;;;8.37;53.63;98969.84;5093360;28;20035;-49
2021/12/23 05:33:15;;;;;;;16.98;9.18;;;;;;;8.13;53.76;98975.28;5093093;28;20076;-50
2021/12/23 05:35:40;;;;;;;22.27;12.20;;;;;;;8.17;53.95;98966.13;5093281;28;20028;-49
2021/12/23 05:38:07;;;;;;;21.88;12.20;;;;;;;7.97;54.39;98968.41;5093166;28;20023;-49
2021/12/23 05:40:34;;;;;;;16.35;10.35;;;;;;;7.80;55.06;98963.28;5091802;28;20032;-49
2021/12/23 05:43:00;;;;;;;14.50;8.85;;;;;;;7.79;54.77;98966.09;5093146;28;20495;-49
2021/12/23 05:45:26;;;;;;;12.95;8.80;;;;;;;7.70;55.63;98965.34;5093089;28;20055;-49
2021/12/23 05:47:52;;;;;;;12.80;8.65;;;;;;;7.80;55.04;98967.72;5091754;28;20532;-48
2021/12/23 05:50:19;;;;;;;15.98;10.10;;;;;;;7.69;54.79;98968.94;5092939;28;20019;-49
2021/12/23 05:52:45;;;;;;;16.38;9.90;;;;;;;7.65;54.75;98962.44;5092983;28;20494;-49
2021/12/23 05:55:13;;;;;;;15.13;10.30;;;;;;;7.53;56.07;98961.22;5092912;28;20028;-49
2021/12/23 05:57:40;;;;;;;17.60;10.35;;;;;;;7.24;55.69;98952.25;5093058;28;20493;-50
2021/12/23 06:00:10;;;;;;;13.95;9.35;;;;;;;7.17;55.65;98959.16;5092790;28;20089;-49
2021/12/23 06:02:36;;;;;;;17.73;10.98;;;;;;;6.93;57.20;98934.81;5093023;28;20054;-49
2021/12/23 06:05:03;;;;;;;17.92;8.95;;;;;;;7.08;57.70;98939.28;5092701;28;20046;-49
2021/12/23 06:07:29;;;;;;;27.55;13.80;;;;;;;7.26;57.93;98931.19;5092688;28;20028;-49
2021/12/23 06:09:55;;;;;;;18.95;11.73;;;;;;;7.44;57.25;98936.16;5092658;28;20545;-49
2021/12/23 06:12:20;;;;;;;19.85;11.20;;;;;;;7.65;56.16;98938.94;5092532;28;20539;-50
2021/12/23 06:14:46;;;;;;;22.10;10.98;;;;;;;7.80;55.85;98926.72;5092580;28;20047;-49
2021/12/23 06:17:12;;;;;;;19.20;12.02;;;;;;;7.85;56.24;98947.09;5092255;28;20397;-49
2021/12/23 06:19:38;;;;;;;25.92;13.43;;;;;;;7.87;56.30;98933.84;5092441;28;20099;-49
2021/12/23 06:22:04;;;;;;;25.05;11.98;;;;;;;8.00;54.83;98941.91;5092446;28;20479;-49
2021/12/23 06:24:31;;;;;;;21.33;12.63;;;;;;;7.93;55.40;98947.03;5092376;28;20016;-48
2021/12/23 06:26:57;;;;;;;24.95;14.95;;;;;;;7.97;54.98;98950.94;5092375;28;20028;-49
2021/12/23 06:29:22;;;;;;;20.40;13.02;;;;;;;8.03;54.19;98953.81;5092361;28;20021;-49
2021/12/23 06:31:48;;;;;;;22.40;11.95;;;;;;;8.03;55.00;98948.56;5091970;28;20055;-49
2021/12/23 06:34:14;;;;;;;18.92;11.77;;;;;;;8.12;55.49;98966.63;5092302;28;20036;-49
2021/12/23 06:36:43;;;;;;;22.33;10.40;;;;;;;8.36;55.24;98957.72;5092119;28;20027;-50
2021/12/23 06:39:09;;;;;;;24.00;10.32;;;;;;;8.59;54.24;98956.88;5092201;28;20031;-50
2021/12/23 06:41:35;;;;;;;20.70;10.40;;;;;;;8.75;53.98;98966.34;5092112;28;20562;-49
2021/12/23 06:44:00;;;;;;;19.25;10.63;;;;;;;8.83;53.94;98978.53;5092130;28;20496;-49
2021/12/23 06:46:26;;;;;;;18.38;10.18;;;;;;;8.74;53.62;98978.63;5090740;28;20077;-49
2021/12/23 06:48:52;;;;;;;25.90;11.90;;;;;;;8.56;53.20;98975.56;5092058;28;20405;-50
2021/12/23 06:51:17;;;;;;;18.10;10.70;;;;;;;8.22;53.35;98979.44;5092045;28;20031;-49
2021/12/23 06:53:43;;;;;;;23.02;11.93;;;;;;;7.84;52.62;98984.66;5092082;28;20020;-49
2021/12/23 06:56:11;;;;;;;24.20;13.38;;;;;;;7.46;53.17;98987.19;5091975;28;20542;-49
2021/12/23 06:58:39;;;;;;;26.58;12.75;;;;;;;7.14;53.06;98998.63;5091967;28;20508;-49
2021/12/23 07:01:05;;;;;;;20.60;13.45;;;;;;;6.77;53.98;99003.50;5091924;28;20020;-49
2021/12/23 07:04:06;;;;;;;22.05;13.50;;;;;;;6.49;54.11;99003.09;5090616;28;20028;-49
2021/12/23 07:06:24;;;;;;;19.17;12.80;;;;;;;6.13;54.41;99005.25;5089633;28;20044;-49
2021/12/23 07:08:50;;;;;;;19.42;13.05;;;;;;;5.85;55.19;99017.75;5091861;28;20122;-51
2021/12/23 07:11:16;;;;;;;23.33;13.50;;;;;;;5.69;55.33;99008.13;5091820;28;20028;-49
2021/12/23 07:13:41;;;;;;;32.28;18.75;;;;;;;5.53;56.03;99008.91;5091718;28;20111;-48
2021/12/23 07:16:07;;;;;;;22.60;14.18;;;;;;;5.65;56.67;99009.44;5091661;28;20432;-49
2021/12/23 07:18:33;;;;;;;25.75;14.60;;;;;;;5.75;56.49;99003.09;5090452;28;20420;-49
2021/12/23 07:20:59;;;;;;;23.75;14.38;;;;;;;5.82;55.20;99000.66;5090424;28;20116;-50
2021/12/23 07:23:24;;;;;;;21.02;13.45;;;;;;;5.69;56.05;99006.34;5090398;28;20031;-49
2021/12/23 07:25:50;;;;;;;26.35;13.90;;;;;;;5.59;56.14;99003.91;5091631;28;20020;-48
2021/12/23 07:28:16;;;;;;;32.75;13.63;;;;;;;5.64;55.94;99003.41;5090358;28;20028;-48
2021/12/23 07:30:43;;;;;;;26.13;14.65;;;;;;;5.58;56.19;99006.66;5094825;28;20110;-49
2021/12/23 07:33:08;;;;;;;22.50;13.10;;;;;;;5.45;56.98;99006.28;5095376;28;20117;-49
2021/12/23 07:35:34;;;;;;;22.40;12.18;;;;;;;5.41;57.17;99008.41;5095582;28;20103;-49
2021/12/23 07:38:02;;;;;;;19.08;10.32;;;;;;;5.59;58.29;99000.47;5094128;28;20034;-49
2021/12/23 07:40:29;;;;;;;19.33;10.80;;;;;;;5.86;58.84;98994.16;5095552;28;20028;-49
2021/12/23 07:43:09;;;;;;;17.77;11.60;;;;;;;6.25;57.26;98996.13;5094135;28;20440;-49
2021/12/23 07:45:36;;;;;;;21.80;12.25;;;;;;;6.90;56.07;98992.56;5095436;28;20034;-49
2021/12/23 07:48:02;;;;;;;24.10;17.65;;;;;;;7.44;54.38;98994.41;5095400;28;20385;-49
2021/12/23 07:50:28;;;;;;;39.20;28.65;;;;;;;7.48;54.49;99005.31;5095321;28;20020;-49
2021/12/23 07:52:54;;;;;;;44.40;33.40;;;;;;;7.36;55.00;98995.28;5095231;28;20111;-51
2021/12/23 07:55:21;;;;;;;18.85;11.90;;;;;;;7.49;54.02;99004.34;5095208;28;20116;-49
2021/12/23 07:57:47;;;;;;;23.35;14.30;;;;;;;7.52;54.75;98994.34;5095148;28;20020;-49
2021/12/23 08:00:14;;;;;;;16.40;10.98;;;;;;;7.74;53.39;98986.69;5095104;28;20028;-49
2021/12/23 08:02:41;;;;;;;21.42;12.40;;;;;;;7.88;54.83;98982.53;5093726;28;20024;-50
2021/12/23 08:05:08;;;;;;;24.58;11.18;;;;;;;7.91;54.08;98997.88;5095044;28;20046;-49
2021/12/23 08:07:34;;;;;;;17.40;11.80;;;;;;;7.60;53.60;98993.50;5095016;28;20024;-51
2021/12/23 08:09:59;;;;;;;28.08;13.75;;;;;;;7.59;55.37;99010.16;5094924;28;20031;-51
2021/12/23 08:12:25;;;;;;;27.17;12.63;;;;;;;7.68;54.42;99001.25;5094850;28;20026;-50
2021/12/23 08:14:51;;;;;;;30.38;13.10;;;;;;;7.86;56.12;99006.22;5094841;28;20375;-49
2021/12/23 08:17:16;;;;;;;27.63;13.38;;;;;;;7.89;54.46;98995.41;5094466;28;20158;-49
2021/12/23 08:19:42;;;;;;;701.85;377.33;;;;;;;8.30;54.59;99004.72;5094708;28;20020;-49
2021/12/23 08:22:09;;;;;;;77.15;42.33;;;;;;;8.95;52.75;98998.84;5094643;28;20394;-49
2021/12/23 08:24:35;;;;;;;56.90;32.67;;;;;;;10.01;51.40;99006.19;5094659;28;20055;-49
2021/12/23 08:27:01;;;;;;;27.23;16.02;;;;;;;11.02;48.87;98999.81;5093279;28;20059;-50
2021/12/23 08:29:27;;;;;;;25.25;17.98;;;;;;;11.46;48.14;98985.44;5093262;28;20030;-49
2021/12/23 08:31:53;;;;;;;23.70;14.60;;;;;;;12.07;46.81;98982.69;5094215;28;20127;-50
2021/12/23 08:34:21;;;;;;;31.20;17.00;;;;;;;12.59;45.73;98988.91;5093186;28;20127;-50
2021/12/23 08:36:47;;;;;;;20.55;12.68;;;;;;;12.96;44.22;98983.97;5094368;28;20020;-50
2021/12/23 08:39:14;;;;;;;21.63;12.48;;;;;;;13.05;43.44;98983.75;5094431;28;20028;-50
2021/12/23 08:41:40;;;;;;;19.80;12.40;;;;;;;13.33;42.51;98978.16;5092903;28;20028;-50
2021/12/23 08:44:05;;;;;;;24.77;13.20;;;;;;;13.74;42.16;98990.09;5094337;28;20043;-50
2021/12/23 08:46:31;;;;;;;21.65;13.55;;;;;;;14.10;40.89;98984.13;5094294;28;20493;-50
2021/12/23 08:48:57;;;;;;;21.20;10.85;;;;;;;14.36;40.19;98990.22;5094210;28;20012;-49
2021/12/23 08:51:23;;;;;;;20.52;12.70;;;;;;;14.45;39.81;98994.19;5092831;28;20097;-49
2021/12/23 08:53:49;;;;;;;15.48;10.57;;;;;;;14.91;39.35;99000.03;5094119;28;20505;-49
2021/12/23 08:56:15;;;;;;;22.92;11.18;;;;;;;15.03;39.06;98997.47;5094001;28;20027;-50
2021/12/23 08:58:42;;;;;;;17.40;11.27;;;;;;;15.26;38.66;99007.38;5094023;28;20434;-49
2021/12/23 09:01:08;;;;;;;14.05;8.82;;;;;;;15.55;38.49;99009.25;5093982;28;20024;-50
2021/12/23 09:03:35;;;;;;;26.80;12.27;;;;;;;16.13;37.96;98999.03;5093977;28;20485;-50
2021/12/23 09:06:02;;;;;;;24.17;11.27;;;;;;;16.49;36.77;99007.81;5094150;28;20027;-49
2021/12/23 09:08:28;;;;;;;21.65;11.50;;;;;;;16.42;36.48;99013.22;5092497;28;20024;-49
2021/12/23 09:10:55;;;;;;;20.40;11.93;;;;;;;16.69;36.14;99005.59;5093783;28;20032;-49
2021/12/23 09:13:22;;;;;;;23.50;12.50;;;;;;;17.16;35.86;99002.06;5092451;28;20448;-49
2021/12/23 09:15:49;;;;;;;25.48;13.13;;;;;;;17.50;35.01;99008.28;5093627;28;20509;-50
2021/12/23 09:18:15;;;;;;;23.38;12.77;;;;;;;17.58;33.89;99009.75;5093569;28;20066;-50
2021/12/23 09:20:40;;;;;;;21.67;12.88;;;;;;;17.26;33.88;99004.13;5092333;28;20052;-50
2021/12/23 09:23:07;;;;;;;22.17;12.90;;;;;;;17.06;34.87;98994.72;5093522;28;20024;-49
2021/12/23 09:25:34;;;;;;;26.75;12.80;;;;;;;17.16;34.21;98997.59;5093558;28;20056;-50
2021/12/23 09:33:20;;;;;;;11.93;7.95;;;;;;;18.22;33.34;98996.25;5093164;28;19927;-50
2021/12/23 09:35:46;;;;;;;16.38;9.65;;;;;;;18.17;33.12;98986.38;5093352;28;20402;-49
2021/12/23 09:38:13;;;;;;;18.17;11.68;;;;;;;18.27;32.84;98995.53;5093136;28;20027;-50
2021/12/23 09:40:40;;;;;;;9.70;6.80;;;;;;;18.40;32.59;98981.09;5093182;28;20022;-50
2021/12/23 09:43:09;;;;;;;10.85;6.85;;;;;;;18.04;33.07;98993.84;5093198;28;20063;-50
2021/12/23 09:45:37;;;;;;;12.80;7.25;;;;;;;18.07;33.78;98985.38;5093140;28;20107;-50
2021/12/23 09:48:04;;;;;;;12.43;6.80;;;;;;;18.42;33.81;98987.78;5093061;28;20682;-50
2021/12/23 09:50:36;;;;;;;8.48;4.47;;;;;;;18.70;32.72;98988.69;5093058;28;20073;-50
2021/12/23 09:53:04;;;;;;;9.15;4.30;;;;;;;18.30;33.66;98987.06;5092839;28;20425;-50
2021/12/23 09:55:30;;;;;;;8.57;4.13;;;;;;;18.24;34.03;98994.16;5091575;28;20032;-50
2021/12/23 09:57:58;;;;;;;8.38;4.55;;;;;;;18.02;34.42;98998.59;5091467;28;20451;-50
2021/12/23 10:00:28;;;;;;;10.88;4.00;;;;;;;18.03;34.87;98997.53;5092825;28;20035;-51
2021/12/23 10:02:54;;;;;;;9.50;4.40;;;;;;;18.09;34.56;98981.47;5092757;28;20569;-50
2021/12/23 10:05:23;;;;;;;7.75;3.75;;;;;;;18.09;34.50;98978.81;5092768;28;20022;-50
2021/12/23 10:07:50;;;;;;;11.25;5.03;;;;;;;18.20;34.56;98990.38;5091353;28;20424;-51
2021/12/23 10:10:23;;;;;;;7.63;3.67;;;;;;;18.28;34.15;98973.22;5092663;28;20054;-50
2021/12/23 10:38:16;;;;;;;9.75;3.25;;;;;;;19.01;32.56;98957.97;5092174;28;20026;-50
2021/12/23 10:40:50;;;;;;;8.10;3.45;;;;;;;18.50;33.64;98957.34;5092232;28;20028;-50
2021/12/23 10:43:31;;;;;;;9.77;3.85;;;;;;;18.52;33.74;98949.91;5090919;28;20028;-50
2021/12/23 10:46:04;;;;;;;5.97;3.08;;;;;;;18.35;33.93;98941.97;5092074;28;20489;-50
2021/12/23 10:48:33;;;;;;;7.13;3.35;;;;;;;17.88;34.62;98942.34;5090836;28;20524;-50
2021/12/23 10:51:06;;;;;;;8.00;3.65;;;;;;;17.55;35.54;98938.59;5092013;28;20401;-50
2021/12/23 10:59:20;;;;;;;6.20;3.47;;;;;;;17.49;35.46;98923.63;5092238;28;20055;-50
2021/12/23 11:02:01;;;;;;;5.70;3.28;;;;;;;17.46;35.63;98916.13;5091903;28;20077;-50
2021/12/23 11:04:27;;;;;;;7.53;3.22;;;;;;;16.70;36.22;98917.13;5091605;28;20413;-50
2021/12/23 11:07:22;;;;;;;5.15;3.08;;;;;;;15.94;38.10;98924.22;5091863;28;20039;-49
2021/12/23 11:10:22;;;;;;;7.95;3.35;;;;;;;16.13;38.36;98915.09;5091900;28;20024;-50
2021/12/23 11:27:34;;;;;;;10.02;3.30;;;;;;;19.89;32.95;98901.06;5091685;28;20452;-50
2021/12/23 11:36:02;;;;;;;15.48;5.53;;;;;;;19.82;32.68;98898.63;5091650;28;20351;-50
2021/12/23 11:41:20;;;;;;;5.03;2.55;;;;;;;19.31;32.43;98877.66;5091548;28;20036;-50
2021/12/23 11:43:50;;;;;;;8.52;3.35;;;;;;;18.55;33.81;98883.78;5091702;28;20059;-50
2021/12/23 11:46:30;;;;;;;10.90;4.03;;;;;;;18.00;34.54;98879.31;5091537;28;20512;-50
2021/12/23 11:48:58;;;;;;;4.00;2.47;;;;;;;17.91;34.90;98875.50;5091612;28;20490;-50
2021/12/23 11:51:35;;;;;;;6.63;3.30;;;;;;;17.83;34.92;98876.69;5091515;28;20099;-50
2021/12/23 11:54:04;;;;;;;8.80;4.00;;;;;;;17.91;34.95;98864.88;5090185;28;20494;-51
2021/12/23 11:56:35;;;;;;;7.15;2.92;;;;;;;17.93;34.69;98852.16;5091290;28;20028;-50
2021/12/23 11:59:02;;;;;;;9.23;2.78;;;;;;;17.96;35.14;98849.00;5091735;28;20035;-50
2021/12/23 12:01:32;;;;;;;12.35;3.45;;;;;;;18.12;34.90;98842.03;5091364;28;20020;-51
2021/12/23 12:04:02;;;;;;;7.78;2.67;;;;;;;18.20;34.80;98832.84;5090123;28;20024;-50
2021/12/23 12:06:40;;;;;;;8.20;2.70;;;;;;;18.10;35.06;98828.19;5089985;28;20020;-50
2021/12/23 12:09:15;;;;;;;7.82;2.65;;;;;;;18.19;35.22;98810.81;5090048;28;20032;-50
2021/12/23 12:11:46;;;;;;;;;;;;;;;18.51;34.29;98808.25;5090681;28;20115;-50
2021/12/23 12:14:39;;;;;;;8.32;2.92;;;;;;;18.07;34.95;98810.91;5089959;28;19912;-50
2021/12/23 12:17:23;;;;;;;16.02;4.32;;;;;;;17.82;35.80;98803.38;5094925;28;20031;-50
2021/12/23 12:20:22;;;;;;;10.05;3.30;;;;;;;17.73;36.23;98800.34;5094793;28;20028;-50
2021/12/23 12:22:53;;;;;;;6.90;3.22;;;;;;;18.02;35.79;98805.53;5094834;28;20039;-50
2021/12/23 12:25:24;;;;;;;7.00;2.65;;;;;;;18.09;35.86;98805.34;5094795;28;20115;-51
2021/12/23 12:28:16;;;;;;;6.97;2.63;;;;;;;17.96;35.97;98798.53;5093353;28;20465;-51
2021/12/23 12:30:56;;;;;;;3.78;2.47;;;;;;;17.71;36.10;98783.06;5094652;28;20063;-50
2021/12/23 12:33:24;;;;;;;7.22;3.10;;;;;;;17.58;36.15;98784.19;5094461;28;20067;-50
2021/12/23 12:36:04;;;;;;;8.60;2.70;;;;;;;17.52;36.50;98775.34;5094549;28;20028;-50